Time;durP1;ratioP1;P1;durP2;ratioP2;P2;SDS_P1;SDS_P2;PMS_P1;PMS_P2;Temp;Humidity;BMP_temperature;BMP_pressure;BME280_temperature;BME280_humidity;BME280_pressure;Samples;Min_cycle;Max_cycle;Signal;HPM_P1;HPM_P2
2021/12/10 00:00:27;;;;;;;;;1.00;1.00;;;;;-147.17;100.00;50153.06;4980672;28;51153;-67
2021/12/10 00:02:53;;;;;;;;;1.00;1.00;;;;;-147.17;100.00;49993.63;4979486;28;51211;-65
2021/12/10 00:05:24;;;;;;;;;1.00;1.00;;;;;-147.17;100.00;49958.19;4977933;28;51004;-67
2021/12/10 00:07:51;;;;;;;;;0.00;0.00;;;;;-147.17;100.00;50066.47;4980373;28;53731;-66
2021/12/10 00:10:22;;;;;;;;;1.25;1.25;;;;;-147.17;100.00;50070.41;4978575;28;51469;-66
2021/12/10 00:12:51;;;;;;;;;1.00;1.00;;;;;-147.17;100.00;50103.84;4982724;28;51099;-68
2021/12/10 00:15:23;;;;;;;;;1.00;0.00;;;;;-147.17;100.00;50111.72;4981397;28;51232;-67
2021/12/10 00:17:50;;;;;;;;;0.00;0.00;;;;;-147.17;100.00;50125.50;4979425;28;51964;-67
2021/12/10 00:20:17;;;;;;;;;0.50;0.50;;;;;-147.17;100.00;50111.72;4976893;28;51209;-67
2021/12/10 00:22:51;;;;;;;;;1.00;1.00;;;;;-147.17;100.00;50066.47;4973567;28;51035;-68
2021/12/10 00:25:21;;;;;;;;;1.00;0.50;;;;;-147.17;100.00;50111.72;4964797;28;51110;-67
2021/12/10 00:27:49;;;;;;;;;0.50;0.50;;;;;-147.17;100.00;50119.59;4972812;28;52519;-67
2021/12/10 00:30:25;;;;;;;;;1.00;1.00;;;;;-147.17;100.00;50129.44;4967660;28;51101;-66
2021/12/10 00:33:14;;;;;;;;;2.00;1.00;;;;;-147.17;100.00;50119.59;4963716;28;51100;-67
2021/12/10 00:35:41;;;;;;;;;1.00;0.00;;;;;-147.17;100.00;50109.75;4974195;28;51098;-67
2021/12/10 00:38:09;;;;;;;;;1.00;1.00;;;;;-147.17;100.00;50103.84;4972784;28;51089;-66
2021/12/10 00:40:35;;;;;;;;;2.00;1.00;;;;;-147.17;100.00;50127.47;4969488;28;50981;-66
2021/12/10 00:43:02;;;;;;;;;2.00;1.00;;;;;-147.17;100.00;50139.28;4963080;28;51251;-66
2021/12/10 00:45:28;;;;;;;;;1.25;1.25;;;;;-147.17;100.00;50129.44;4973791;28;51383;-66
2021/12/10 00:47:54;;;;;;;;;1.00;1.00;;;;;-147.17;100.00;50151.09;4976507;28;52806;-66
2021/12/10 00:50:25;;;;;;;;;1.00;1.00;;;;;-147.17;100.00;50135.34;4970403;28;51126;-66
2021/12/10 00:52:53;;;;;;;;;1.00;1.00;;;;;-147.17;100.00;50139.28;4960271;28;51112;-66
2021/12/10 00:55:18;;;;;;;;;1.00;0.00;;;;;-147.17;100.00;50151.09;4966653;28;51271;-65
2021/12/10 00:57:44;;;;;;;;;0.00;0.00;;;;;-147.17;100.00;50160.94;4979717;28;52285;-66
2021/12/10 01:00:17;;;;;;;;;0.00;0.00;;;;;-147.17;100.00;50155.03;4979955;28;50920;-65
2021/12/10 01:02:42;;;;;;;;;0.00;0.00;;;;;-147.17;100.00;50160.94;4977291;28;51046;-65
2021/12/10 01:05:11;;;;;;;;;0.00;0.00;;;;;-147.17;100.00;50072.38;4975227;28;51090;-64
2021/12/10 01:07:38;;;;;;;;;0.00;0.00;;;;;-147.17;100.00;50033.00;4976213;28;52263;-65
2021/12/10 01:10:30;;;;;;;;;0.25;0.25;;;;;-147.17;100.00;50029.06;4974742;28;51026;-64
2021/12/10 01:12:59;;;;;;;;;0.00;0.00;;;;;-147.17;100.00;50040.88;4961950;28;51070;-66
2021/12/10 01:15:42;;;;;;;;;1.00;1.00;;;;;-147.17;100.00;50031.03;4976143;28;51098;-65
2021/12/10 01:23:59;;;;;;;;;0.00;0.00;;;;;-147.17;100.00;50009.38;4970006;28;51193;-66
2021/12/10 01:26:51;;;;;;;;;0.00;0.00;;;;;-147.17;100.00;49985.75;4987614;28;51404;-65
2021/12/10 01:29:24;;;;;;;;;0.00;0.00;;;;;-147.17;100.00;50025.13;4960757;28;51997;-67
2021/12/10 01:31:50;;;;;;;;;0.00;0.00;;;;;-147.17;100.00;50044.81;4971303;28;51059;-65
2021/12/10 01:34:16;;;;;;;;;0.75;0.00;;;;;-147.17;100.00;50001.50;4974300;28;50983;-65
2021/12/10 01:36:42;;;;;;;;;0.00;0.00;;;;;-147.17;100.00;50029.06;4973915;28;51243;-66
2021/12/10 01:39:12;;;;;;;;;0.00;0.00;;;;;-147.17;100.00;50029.06;4970252;28;51810;-65
2021/12/10 01:41:40;;;;;;;;;1.00;1.00;;;;;-147.17;100.00;50050.72;4959176;28;51145;-66
2021/12/10 01:44:15;;;;;;;;;1.00;0.00;;;;;-147.17;100.00;50040.88;4963724;28;51076;-66
2021/12/10 01:46:44;;;;;;;;;0.00;0.00;;;;;-147.17;100.00;50034.97;4957746;28;51166;-66
2021/12/10 01:49:12;;;;;;;;;0.00;0.00;;;;;-147.17;100.00;50034.97;4963712;28;51091;-65
2021/12/10 01:51:39;;;;;;;;;0.25;0.00;;;;;-147.17;100.00;50040.88;4977063;28;51192;-66
2021/12/10 01:54:10;;;;;;;;;0.00;0.00;;;;;-147.17;100.00;50048.75;4971633;28;51126;-67
2021/12/10 01:56:38;;;;;;;;;0.00;0.00;;;;;-147.17;100.00;50048.75;4956012;28;51153;-66
2021/12/10 01:59:07;;;;;;;;;1.00;0.75;;;;;-147.17;100.00;50094.00;4963642;28;52415;-65
2021/12/10 02:01:40;;;;;;;;;0.00;0.00;;;;;-147.17;100.00;50025.13;4966469;28;51116;-65
2021/12/10 02:04:08;;;;;;;;;0.00;0.00;;;;;-147.17;100.00;50050.72;4969592;28;51201;-66
2021/12/10 02:06:34;;;;;;;;;0.00;0.00;;;;;-147.17;100.00;50074.34;4972025;28;51672;-65
2021/12/10 02:09:02;;;;;;;;;0.00;0.00;;;;;-147.17;100.00;50076.31;4969509;28;51158;-65
2021/12/10 02:11:28;;;;;;;;;0.00;0.00;;;;;-147.17;100.00;50064.50;4968780;28;50936;-66
2021/12/10 02:13:53;;;;;;;;;0.00;0.00;;;;;-147.17;100.00;50090.09;4971063;28;51109;-65
2021/12/10 02:16:19;;;;;;;;;0.00;0.00;;;;;-147.17;100.00;50082.22;4964821;28;51080;-66
2021/12/10 02:18:45;;;;;;;;;0.50;0.50;;;;;-147.17;100.00;50064.50;4970481;28;51141;-66
2021/12/10 02:21:10;;;;;;;;;0.00;0.00;;;;;-147.17;100.00;50072.38;4966805;28;51203;-65
2021/12/10 02:23:41;;;;;;;;;0.00;0.00;;;;;-147.17;100.00;50099.91;4957163;28;50962;-65
2021/12/10 02:26:10;;;;;;;;;0.00;0.00;;;;;-147.17;100.00;50080.25;4971585;28;51031;-65
2021/12/10 02:28:36;;;;;;;;;0.00;0.00;;;;;-147.17;100.00;50095.97;4968044;28;53049;-65
2021/12/10 02:31:03;;;;;;;;;0.00;0.00;;;;;-147.17;100.00;50111.72;4972583;28;51026;-66
2021/12/10 02:33:29;;;;;;;;;0.00;0.00;;;;;-147.17;100.00;50113.69;4965300;28;51060;-65
2021/12/10 02:35:55;;;;;;;;;0.25;0.00;;;;;-147.17;100.00;50147.16;4972799;28;51120;-65
2021/12/10 02:38:22;;;;;;;;;0.00;0.00;;;;;-147.17;100.00;50151.09;4968243;28;51217;-65
2021/12/10 02:40:50;;;;;;;;;0.00;0.00;;;;;-147.17;100.00;50162.91;4970108;28;51023;-67
2021/12/10 02:43:19;;;;;;;;;0.00;0.00;;;;;-147.17;100.00;50157.00;4964528;28;50903;-65
2021/12/10 02:45:48;;;;;;;;;0.00;0.00;;;;;-147.17;100.00;50158.97;4961018;28;51034;-66
2021/12/10 02:48:13;;;;;;;;;1.00;1.00;;;;;-147.17;100.00;50139.28;4955258;28;52087;-66
2021/12/10 02:50:39;;;;;;;;;0.00;0.00;;;;;-147.17;100.00;50155.03;4964531;28;51193;-66
2021/12/10 02:53:07;;;;;;;;;0.00;0.00;;;;;-147.17;100.00;50155.03;4962230;28;51151;-65
2021/12/10 02:55:34;;;;;;;;;0.00;0.00;;;;;-147.17;100.00;50182.59;4973304;28;51389;-65
2021/12/10 02:58:05;;;;;;;;;0.00;0.00;;;;;-147.17;100.00;50149.13;4973159;28;51137;-66
2021/12/10 03:00:35;;;;;;;;;0.00;0.00;;;;;-147.17;100.00;50182.59;4971040;28;51153;-66
2021/12/10 03:03:01;;;;;;;;;0.00;0.00;;;;;-147.17;100.00;50157.00;4960661;28;50960;-66
2021/12/10 03:05:28;;;;;;;;;0.00;0.00;;;;;-147.17;100.00;50174.72;4973298;28;51435;-66
2021/12/10 03:07:54;;;;;;;;;0.00;0.00;;;;;-147.17;100.00;50216.06;4971547;28;51906;-65
2021/12/10 03:10:29;;;;;;;;;0.00;0.00;;;;;-147.17;100.00;50204.25;4971622;28;51207;-65
2021/12/10 03:12:55;;;;;;;;;0.25;0.00;;;;;-147.17;100.00;50188.50;4973209;28;51050;-66
2021/12/10 03:15:22;;;;;;;;;0.00;0.00;;;;;-147.17;100.00;50218.03;4973350;28;51534;-66
2021/12/10 03:17:48;;;;;;;;;0.00;0.00;;;;;-147.17;100.00;50216.06;4971489;28;50957;-66
2021/12/10 03:20:18;;;;;;;;;0.50;0.50;;;;;-147.17;100.00;50186.53;4971471;28;51118;-65
2021/12/10 03:22:44;;;;;;;;;0.00;0.00;;;;;-147.17;100.00;50198.34;4971521;28;51319;-65
2021/12/10 03:25:13;;;;;;;;;0.00;0.00;;;;;-147.17;100.00;50204.25;4970521;28;51145;-65
2021/12/10 03:27:39;;;;;;;;;0.00;0.00;;;;;-147.17;100.00;50194.41;4968619;28;51374;-65
2021/12/10 03:30:09;;;;;;;;;1.00;1.00;;;;;-147.17;100.00;50166.84;4969682;28;51081;-65
2021/12/10 03:32:36;;;;;;;;;0.00;0.00;;;;;-147.17;100.00;50182.59;4976096;28;52693;-65
2021/12/10 03:35:09;;;;;;;;;1.00;1.00;;;;;-147.17;100.00;50194.41;4973119;28;51130;-65
2021/12/10 03:37:36;;;;;;;;;2.25;2.25;;;;;-147.17;100.00;50174.72;4966379;28;52746;-68
2021/12/10 03:40:04;;;;;;;;;0.50;0.50;;;;;-147.17;100.00;50174.72;4971735;28;51125;-66
2021/12/10 03:42:29;;;;;;;;;0.00;0.00;;;;;-147.17;100.00;50178.66;4965330;28;51078;-66
2021/12/10 03:44:55;;;;;;;;;0.00;0.00;;;;;-147.17;100.00;50147.16;4975167;28;50961;-66
2021/12/10 03:47:20;;;;;;;;;0.00;0.00;;;;;-147.17;100.00;50184.56;4972970;28;52629;-65
2021/12/10 03:49:46;;;;;;;;;0.00;0.00;;;;;-147.17;100.00;50170.78;4969494;28;51178;-65
2021/12/10 03:52:11;;;;;;;;;0.00;0.00;;;;;-147.17;100.00;50190.47;4976138;28;51202;-65
2021/12/10 03:54:39;;;;;;;;;0.00;0.00;;;;;-147.17;100.00;50166.84;4974101;28;51219;-65
2021/12/10 03:57:05;;;;;;;;;0.00;0.00;;;;;-147.17;100.00;50174.72;4964175;28;51922;-66
2021/12/10 03:59:31;;;;;;;;;1.75;0.25;;;;;-147.17;100.00;50155.03;4972174;28;51127;-66
2021/12/10 04:01:58;;;;;;;;;0.33;0.33;;;;;-147.17;100.00;50139.28;4974551;28;51142;-66
2021/12/10 04:04:32;;;;;;;;;1.00;1.00;;;;;-147.17;100.00;50137.31;4968130;28;51361;-65
2021/12/10 04:07:00;;;;;;;;;1.00;1.00;;;;;-147.17;100.00;50127.47;4975121;28;51187;-65
2021/12/10 04:09:26;;;;;;;;;0.67;0.67;;;;;-147.17;100.00;50143.22;4974927;28;51430;-64
2021/12/10 04:11:52;;;;;;;;;1.00;1.00;;;;;-147.17;100.00;50119.59;4972772;28;51136;-67
2021/12/10 04:14:18;;;;;;;;;1.00;1.00;;;;;-147.17;100.00;50127.47;4969046;28;51114;-65
2021/12/10 04:16:44;;;;;;;;;1.00;1.00;;;;;-147.17;100.00;50107.78;4973150;28;51689;-64
2021/12/10 04:19:14;;;;;;;;;1.67;1.00;;;;;-147.17;100.00;50141.25;4972847;28;50911;-66
2021/12/10 04:21:41;;;;;;;;;0.33;0.00;;;;;-147.17;100.00;50133.38;4973189;28;51109;-65
2021/12/10 04:24:13;;;;;;;;;1.00;1.00;;;;;-147.17;100.00;50119.59;4974602;28;51291;-65
2021/12/10 04:26:39;;;;;;;;;21.75;19.75;;;;;-147.17;100.00;50147.16;4971750;28;51165;-64
2021/12/10 04:29:04;;;;;;;;;1.00;1.00;;;;;-147.17;100.00;50170.78;4973501;28;50995;-65
2021/12/10 04:31:32;;;;;;;;;2.00;1.00;;;;;-147.17;100.00;50131.41;4974475;28;51117;-65
2021/12/10 04:33:57;;;;;;;;;1.67;1.67;;;;;-147.17;100.00;50141.25;4973045;28;51221;-65
2021/12/10 04:36:23;;;;;;;;;1.00;1.00;;;;;-147.17;100.00;50123.53;4975515;28;51557;-66
2021/12/10 04:38:48;;;;;;;;;2.00;1.00;;;;;-147.17;100.00;50155.03;4974423;28;51093;-66
2021/12/10 04:41:14;;;;;;;;;2.75;2.00;;;;;-147.17;100.00;50174.72;4973367;28;51121;-65
2021/12/10 04:43:42;;;;;;;;;1.00;1.00;;;;;-147.17;100.00;50160.94;4975334;28;51234;-65
2021/12/10 04:46:07;;;;;;;;;2.33;1.00;;;;;-147.17;100.00;50170.78;4968916;28;53285;-65
2021/12/10 04:49:07;;;;;;;;;1.67;1.67;;;;;-147.17;100.00;50155.03;4973023;28;51295;-65
2021/12/10 04:51:37;;;;;;;;;2.00;1.00;;;;;-147.17;100.00;50190.47;4942560;28;51085;-64
2021/12/10 04:54:05;;;;;;;;;3.00;2.00;;;;;-147.17;100.00;50172.75;4971547;28;51437;-64
2021/12/10 04:56:30;;;;;;;;;2.00;1.67;;;;;-147.17;100.00;50202.28;4968818;28;51907;-66
2021/12/10 04:58:57;;;;;;;;;2.00;2.00;;;;;-147.17;100.00;50182.59;4968444;28;51202;-66
2021/12/10 05:01:23;;;;;;;;;3.67;3.33;;;;;-147.17;100.00;50184.56;4976424;28;51205;-66
2021/12/10 05:03:49;;;;;;;;;4.00;3.00;;;;;-147.17;100.00;50206.22;4962919;28;51389;-66
2021/12/10 05:06:14;;;;;;;;;3.00;2.00;;;;;-147.17;100.00;50204.25;4973556;28;51887;-66
2021/12/10 05:08:41;;;;;;;;;2.00;2.00;;;;;-147.17;100.00;50190.47;4969856;28;50943;-65
2021/12/10 05:11:09;;;;;;;;;2.00;2.00;;;;;-147.17;100.00;50194.41;4965436;28;51162;-65
2021/12/10 05:13:36;;;;;;;;;3.00;2.00;;;;;-147.17;100.00;50202.28;4956061;28;51331;-66
2021/12/10 05:16:03;;;;;;;;;2.33;2.00;;;;;-147.17;100.00;50225.91;4960358;28;51227;-65
2021/12/10 05:18:35;;;;;;;;;3.00;2.00;;;;;-147.17;100.00;50239.69;4977763;28;51255;-65
2021/12/10 05:21:01;;;;;;;;;2.67;2.00;;;;;-147.17;100.00;50233.78;4972239;28;51030;-65
2021/12/10 05:23:26;;;;;;;;;1.00;1.00;;;;;-147.17;100.00;50245.59;4974916;28;50932;-66
2021/12/10 05:25:52;;;;;;;;;2.00;1.33;;;;;-147.17;100.00;50251.50;4974187;28;52125;-66
2021/12/10 05:28:18;;;;;;;;;3.67;2.00;;;;;-147.17;100.00;50245.59;4983919;28;51155;-66
2021/12/10 05:30:45;;;;;;;;;2.00;1.00;;;;;-147.17;100.00;50218.03;4969442;28;51199;-66
2021/12/10 05:33:16;;;;;;;;;2.00;2.00;;;;;-147.17;100.00;50257.41;4972481;28;50932;-65
2021/12/10 05:35:43;;;;;;;;;7.25;7.00;;;;;-147.17;100.00;50245.59;4978511;28;52797;-65
2021/12/10 05:38:08;;;;;;;;;1.00;0.67;;;;;-147.17;100.00;50288.91;4960867;28;51153;-65
2021/12/10 05:40:34;;;;;;;;;4.00;1.33;;;;;-147.17;100.00;50237.72;4955191;28;51123;-66
2021/12/10 05:43:00;;;;;;;;;1.33;1.00;;;;;-147.17;100.00;50255.44;4971612;28;51163;-66
2021/12/10 05:45:25;;;;;;;;;2.33;1.00;;;;;-147.17;100.00;50279.06;4972642;28;51376;-66
2021/12/10 05:47:52;;;;;;;;;3.33;2.00;;;;;-147.17;100.00;50233.78;4973484;28;51114;-66
2021/12/10 05:50:21;;;;;;;;;2.00;1.00;;;;;-147.17;100.00;50265.28;4970827;28;51118;-67
2021/12/10 05:52:46;;;;;;;;;3.00;1.33;;;;;-147.17;100.00;50261.34;4972009;28;51190;-66
2021/12/10 05:55:12;;;;;;;;;1.00;0.67;;;;;-147.17;100.00;50310.56;4968795;28;51665;-66
2021/12/10 05:57:38;;;;;;;;;3.00;2.00;;;;;-147.17;100.00;50261.34;4971319;28;51119;-66
2021/12/10 06:00:08;;;;;;;;;2.00;2.00;;;;;-147.17;100.00;50277.09;4980621;28;51214;-66
2021/12/10 06:02:33;;;;;;;;;2.00;2.00;;;;;-147.17;100.00;50277.09;4956710;28;51352;-66
2021/12/10 06:04:59;;;;;;;;;3.00;3.00;;;;;-147.17;100.00;50302.69;4970063;28;52399;-66
2021/12/10 06:07:25;;;;;;;;;2.00;1.00;;;;;-147.17;100.00;50296.78;4972328;28;51054;-66
2021/12/10 06:09:50;;;;;;;;;9.50;9.00;;;;;-147.17;100.00;50283.00;4963626;28;52671;-65
2021/12/10 06:12:15;;;;;;;;;3.00;3.00;;;;;-147.17;100.00;50281.03;4971405;28;51391;-65
2021/12/10 06:14:41;;;;;;;;;2.00;1.67;;;;;-147.17;100.00;50281.03;4972786;28;51958;-66
2021/12/10 06:17:07;;;;;;;;;1.00;1.00;;;;;-147.17;100.00;50320.38;4972578;28;51240;-66
2021/12/10 06:19:32;;;;;;;;;1.67;1.67;;;;;-147.17;100.00;50308.59;4973984;28;51118;-65
2021/12/10 06:21:57;;;;;;;;;0.33;0.33;;;;;-147.17;100.00;50296.78;4973987;28;50999;-65
2021/12/10 06:24:24;;;;;;;;;2.33;1.00;;;;;-147.17;100.00;50304.66;4972822;28;51113;-67
2021/12/10 06:26:52;;;;;;;;;0.67;0.67;;;;;-147.17;100.00;50265.28;4973266;28;51153;-66
2021/12/10 06:29:18;;;;;;;;;1.00;1.00;;;;;-147.17;100.00;50257.41;4969054;28;51004;-66
2021/12/10 06:31:44;;;;;;;;;3.00;2.33;;;;;-147.17;100.00;50281.03;4973264;28;51427;-66
2021/12/10 06:34:10;;;;;;;;;2.00;2.00;;;;;-147.17;100.00;50265.28;4973195;28;51549;-66
2021/12/10 06:36:35;;;;;;;;;1.67;1.00;;;;;-147.17;100.00;50298.75;4973794;28;51124;-67
2021/12/10 06:39:04;;;;;;;;;2.00;1.67;;;;;-147.17;100.00;50308.59;4973363;28;51731;-69
2021/12/10 06:41:30;;;;;;;;;1.00;1.00;;;;;-147.17;100.00;50308.59;4963183;28;51356;-67
2021/12/10 06:43:56;;;;;;;;;2.00;2.00;;;;;-147.17;100.00;50304.66;4957238;28;51636;-67
2021/12/10 06:46:21;;;;;;;;;4.50;4.50;;;;;-147.17;100.00;50279.06;4964252;28;50912;-67
2021/12/10 06:48:47;;;;;;;;;3.67;2.00;;;;;-147.17;100.00;50283.00;4969186;28;50885;-66
2021/12/10 06:51:18;;;;;;;;;7.50;5.50;;;;;-147.17;100.00;50273.16;4972285;28;51165;-66
2021/12/10 06:53:45;;;;;;;;;0.33;0.33;;;;;-147.17;100.00;50259.38;4972728;28;51746;-67
2021/12/10 06:56:13;;;;;;;;;1.00;1.00;;;;;-147.17;100.00;50283.00;4963217;28;51266;-67
2021/12/10 06:58:39;;;;;;;;;3.00;2.00;;;;;-147.17;100.00;50267.25;4964363;28;51161;-67
2021/12/10 07:01:26;;;;;;;;;1.00;1.00;;;;;-147.17;100.00;50273.16;4968375;28;51268;-67
2021/12/10 07:03:53;;;;;;;;;1.67;1.00;;;;;-147.17;100.00;50253.47;4967995;28;51581;-67
2021/12/10 07:06:20;;;;;;;;;2.67;1.00;;;;;-147.17;100.00;50251.50;4962051;28;51041;-67
2021/12/10 07:08:47;;;;;;;;;2.67;1.00;;;;;-147.17;100.00;50292.84;4976982;28;50934;-67
2021/12/10 07:11:15;;;;;;;;;3.00;2.67;;;;;-147.17;100.00;50269.22;4971174;28;50931;-69
2021/12/10 07:13:44;;;;;;;;;1.00;0.67;;;;;-147.17;100.00;50253.47;4967100;28;51942;-67
2021/12/10 07:16:09;;;;;;;;;1.00;1.00;;;;;-147.17;100.00;50283.00;4967945;28;51016;-67
2021/12/10 07:18:36;;;;;;;;;1.00;1.00;;;;;-147.17;100.00;50237.72;4963461;28;51008;-66
2021/12/10 07:21:02;;;;;;;;;2.00;1.00;;;;;-147.17;100.00;50265.28;4972591;28;51059;-66
2021/12/10 07:23:27;;;;;;;;;0.67;0.67;;;;;-147.17;100.00;50302.69;4974580;28;51994;-64
2021/12/10 07:25:52;;;;;;;;;1.33;0.33;;;;;-147.17;100.00;50292.84;4978311;28;51046;-64
2021/12/10 07:28:18;;;;;;;;;1.00;0.67;;;;;-147.17;100.00;50279.06;4973258;28;51059;-64
2021/12/10 07:30:47;;;;;;;;;1.00;1.00;;;;;-147.17;100.00;50292.84;4969331;28;51395;-65
2021/12/10 07:33:13;;;;;;;;;0.67;0.00;;;;;-147.17;100.00;50312.53;4974423;28;51950;-64
2021/12/10 07:35:39;;;;;;;;;0.00;0.00;;;;;-147.17;100.00;50277.09;4968187;28;51211;-63
2021/12/10 07:38:05;;;;;;;;;1.00;0.67;;;;;-147.17;100.00;50340.06;4961370;28;51272;-71
2021/12/10 07:40:33;;;;;;;;;0.67;0.67;;;;;-147.17;100.00;50334.16;4976089;28;51493;-69
2021/12/10 07:42:58;;;;;;;;;0.00;0.00;;;;;-147.17;100.00;50314.47;4977971;28;50994;-67
2021/12/10 07:45:25;;;;;;;;;0.67;0.67;;;;;-147.17;100.00;50351.88;4977529;28;50987;-69
2021/12/10 07:47:59;;;;;;;;;0.00;0.00;;;;;-147.17;100.00;50363.69;4974559;28;51022;-67
2021/12/10 07:50:33;;;;;;;;;1.00;1.00;;;;;-147.17;100.00;50312.53;4973533;28;51253;-68
2021/12/10 07:52:59;;;;;;;;;1.00;0.33;;;;;-147.17;100.00;50347.94;4964844;28;52933;-68
2021/12/10 07:55:28;;;;;;;;;0.00;0.00;;;;;-147.17;100.00;50357.78;4975877;28;51125;-67
2021/12/10 07:57:54;;;;;;;;;2.75;2.00;;;;;-147.17;100.00;50355.81;4972858;28;51114;-67
2021/12/10 08:00:22;;;;;;;;;4.00;3.50;;;;;-147.17;100.00;50365.66;4982518;28;50916;-72
2021/12/10 08:02:47;;;;;;;;;1.67;1.67;;;;;-147.17;100.00;50373.53;4972742;28;51235;-66
2021/12/10 08:05:14;;;;;;;;;1.33;1.00;;;;;-147.17;100.00;50347.94;4954586;28;51050;-66
2021/12/10 08:07:40;;;;;;;;;2.00;0.00;;;;;-147.17;100.00;50397.16;4956542;28;51059;-67
2021/12/10 08:10:08;;;;;;;;;0.00;0.00;;;;;-147.17;100.00;50381.41;4955834;28;51059;-66
2021/12/10 08:12:33;;;;;;;;;2.00;2.00;;;;;-147.17;100.00;50405.03;4963758;28;51800;-66
2021/12/10 08:14:59;;;;;;;;;0.00;0.00;;;;;-147.17;100.00;50428.66;4967026;28;50972;-66
2021/12/10 08:17:24;;;;;;;;;1.00;1.00;;;;;-147.17;100.00;50395.19;4956082;28;51008;-66
2021/12/10 08:19:51;;;;;;;;;2.25;2.00;;;;;-147.17;100.00;50375.50;4963059;28;51321;-66
2021/12/10 08:22:16;;;;;;;;;25.25;21.75;;;;;-147.17;100.00;50375.50;4970719;28;53116;-65
2021/12/10 08:24:43;;;;;;;;;1.00;1.00;;;;;-147.17;100.00;50373.53;4954529;28;50948;-66
2021/12/10 08:27:10;;;;;;;;;1.00;1.00;;;;;-147.17;100.00;50405.03;4958393;28;50914;-65
2021/12/10 08:29:35;;;;;;;;;0.00;0.00;;;;;-147.17;100.00;50389.28;4966301;28;51425;-64
2021/12/10 08:32:02;;;;;;;;;1.67;1.00;;;;;-147.17;100.00;50383.38;4955570;28;51788;-65
2021/12/10 08:34:28;;;;;;;;;1.33;1.00;;;;;-147.17;100.00;50424.72;4955840;28;50938;-64
2021/12/10 08:36:54;;;;;;;;;2.00;2.00;;;;;-147.17;100.00;50403.06;4955820;28;50858;-64
2021/12/10 08:39:19;;;;;;;;;2.75;2.00;;;;;-147.17;100.00;50416.84;4955826;28;51074;-65
2021/12/10 08:41:45;;;;;;;;;1.00;1.00;;;;;-147.17;100.00;50395.19;4954783;28;52630;-66
2021/12/10 08:44:11;;;;;;;;;1.00;1.00;;;;;-147.17;100.00;50408.97;4954149;28;50942;-65
2021/12/10 08:46:40;;;;;;;;;2.00;1.33;;;;;-147.17;100.00;50416.84;4954175;28;51071;-65
2021/12/10 08:49:06;;;;;;;;;0.67;0.00;;;;;-147.17;100.00;50414.88;4955772;28;51115;-65
2021/12/10 08:51:47;;;;;;;;;1.67;0.33;;;;;-147.17;100.00;50436.53;4955214;28;50998;-65
2021/12/10 08:54:14;;;;;;;;;1.00;0.00;;;;;-147.17;100.00;50440.47;4955454;28;50984;-66
2021/12/10 08:56:40;;;;;;;;;2.00;1.00;;;;;-147.17;100.00;50405.03;4954713;28;51085;-64
2021/12/10 08:59:07;;;;;;;;;1.00;1.00;;;;;-147.17;100.00;50426.69;4955776;28;51076;-64
2021/12/10 09:01:36;;;;;;;;;1.00;1.00;;;;;-147.17;100.00;50422.75;4955063;28;51923;-66
2021/12/10 09:04:06;;;;;;;;;0.67;0.67;;;;;-147.17;100.00;50428.66;4972224;28;51030;-65
2021/12/10 09:06:35;;;;;;;;;1.00;1.00;;;;;-147.17;100.00;50440.47;4957718;28;51040;-65
2021/12/10 09:09:07;;;;;;;;;1.00;1.00;;;;;-147.17;100.00;50430.63;4975418;28;51219;-65
2021/12/10 09:11:33;;;;;;;;;3.00;3.00;;;;;-147.17;100.00;50450.31;4973947;28;50979;-65
2021/12/10 09:13:59;;;;;;;;;2.00;1.00;;;;;-147.17;100.00;50401.09;4963105;28;51026;-65
2021/12/10 09:16:29;;;;;;;;;0.67;0.67;;;;;-147.17;100.00;50426.69;4965760;28;51193;-67
2021/12/10 09:19:02;;;;;;;;;1.00;0.00;;;;;-147.17;100.00;50407.00;4966271;28;51001;-66
2021/12/10 09:21:31;;;;;;;;;6.00;2.67;;;;;-147.17;100.00;50422.75;4974645;28;52101;-66
2021/12/10 09:24:03;;;;;;;;;2.67;2.00;;;;;-147.17;100.00;50418.81;4974570;28;51050;-70
2021/12/10 09:26:29;;;;;;;;;3.00;3.00;;;;;-147.17;100.00;50418.81;4974161;28;51170;-65
2021/12/10 09:28:57;;;;;;;;;1.00;1.00;;;;;-147.17;100.00;50410.94;4972866;28;51195;-65
2021/12/10 09:31:24;;;;;;;;;2.75;2.25;;;;;-147.17;100.00;50399.13;4954684;28;51903;-65
2021/12/10 09:33:57;;;;;;;;;4.00;3.00;;;;;-147.17;100.00;50434.56;4954372;28;50937;-66
2021/12/10 09:36:23;;;;;;;;;2.33;2.33;;;;;-147.17;100.00;50424.72;4953333;28;51023;-66
2021/12/10 09:38:49;;;;;;;;;2.33;2.33;;;;;-147.17;100.00;50412.91;4953568;28;51325;-65
2021/12/10 09:41:15;;;;;;;;;2.00;1.67;;;;;-147.17;100.00;50446.38;4953403;28;52802;-65
2021/12/10 09:43:41;;;;;;;;;2.33;2.00;;;;;-147.17;100.00;50383.38;4954230;28;51068;-66
2021/12/10 09:46:09;;;;;;;;;2.67;2.67;;;;;-147.17;100.00;50416.84;4954820;28;51063;-65
2021/12/10 09:48:35;;;;;;;;;2.67;2.00;;;;;-147.17;100.00;50418.81;4954824;28;51175;-66
2021/12/10 09:51:06;;;;;;;;;2.00;2.00;;;;;-147.17;100.00;50408.97;4954035;28;51887;-65
2021/12/10 09:53:33;;;;;;;;;1.33;1.33;;;;;-147.17;100.00;50430.63;4954140;28;51015;-66
2021/12/10 09:56:00;;;;;;;;;1.33;1.33;;;;;-147.17;100.00;50399.13;4953634;28;50956;-65
2021/12/10 09:58:25;;;;;;;;;1.67;1.67;;;;;-147.17;100.00;50430.63;4954117;28;51197;-65
2021/12/10 10:01:02;;;;;;;;;2.00;2.00;;;;;-147.17;100.00;50416.84;4958045;28;51002;-65
2021/12/10 10:03:31;;;;;;;;;7.00;4.00;;;;;-147.17;100.00;50422.75;4960989;28;51035;-66
2021/12/10 10:05:59;;;;;;;;;3.67;3.00;;;;;-147.17;100.00;50454.25;4957896;28;51289;-65
2021/12/10 10:08:28;;;;;;;;;3.00;2.67;;;;;-147.17;100.00;50420.78;4978683;28;51154;-65
2021/12/10 10:11:01;;;;;;;;;1.33;1.33;;;;;-147.17;100.00;50412.91;4956421;28;51990;-65
2021/12/10 10:13:31;;;;;;;;;1.00;0.00;;;;;-147.17;100.00;50485.75;4953689;28;51213;-65
2021/12/10 10:15:59;;;;;;;;;1.00;1.00;;;;;-147.17;100.00;50471.97;4956183;28;51199;-65
2021/12/10 10:18:27;;;;;;;;;1.00;1.00;;;;;-147.17;100.00;50466.06;4954305;28;51114;-65
2021/12/10 10:20:58;;;;;;;;;1.00;1.00;;;;;-147.17;100.00;50473.94;4953624;28;52452;-64
2021/12/10 10:23:26;;;;;;;;;1.00;1.00;;;;;-147.17;100.00;50487.72;4961197;28;51001;-66
2021/12/10 10:25:55;;;;;;;;;1.00;0.33;;;;;-147.17;100.00;50481.81;4954110;28;51209;-66
2021/12/10 10:28:21;;;;;;;;;4.00;0.67;;;;;-147.17;100.00;50477.88;4965841;28;51218;-65
2021/12/10 10:31:00;;;;;;;;;3.00;3.00;;;;;-147.17;100.00;50430.63;4966377;28;51411;-65
2021/12/10 10:33:29;;;;;;;;;3.00;2.00;;;;;-147.17;100.00;50450.31;4953437;28;51129;-64
2021/12/10 10:36:01;;;;;;;;;5.00;4.75;;;;;-147.17;100.00;50434.56;4953501;28;51027;-65
2021/12/10 10:38:28;;;;;;;;;3.75;2.50;;;;;-147.17;100.00;50456.22;4953624;28;51130;-64
2021/12/10 10:41:03;;;;;;;;;3.67;3.00;;;;;-147.17;100.00;50440.47;4952274;28;51159;-65
2021/12/10 10:43:29;;;;;;;;;3.00;3.00;;;;;-147.17;100.00;50477.88;4953077;28;51091;-65
2021/12/10 10:45:56;;;;;;;;;6.00;4.00;;;;;-147.17;100.00;50471.97;4953567;28;50891;-65
2021/12/10 10:48:23;;;;;;;;;2.33;2.33;;;;;-147.17;100.00;50468.03;4951886;28;51188;-65
2021/12/10 10:50:55;;;;;;;;;2.00;2.00;;;;;-147.17;100.00;50464.09;4953130;28;51086;-65
2021/12/10 10:53:27;;;;;;;;;2.00;2.00;;;;;-147.17;100.00;50495.59;4956658;28;50915;-66
2021/12/10 10:56:04;;;;;;;;;2.67;2.00;;;;;-147.17;100.00;50517.25;4960189;28;51023;-66
2021/12/10 10:58:36;;;;;;;;;2.00;2.00;;;;;-147.17;100.00;50521.19;4956605;28;50965;-65
2021/12/10 11:01:26;;;;;;;;;2.00;1.00;;;;;-147.17;100.00;50527.09;4952855;28;51150;-66
2021/12/10 11:04:23;;;;;;;;;3.00;2.00;;;;;-147.17;100.00;50509.38;4969143;28;51094;-65
2021/12/10 11:06:51;;;;;;;;;6.33;6.33;;;;;-147.17;100.00;50507.41;4953171;28;51155;-65
2021/12/10 11:09:24;;;;;;;;;2.67;2.67;;;;;-147.17;100.00;50515.28;4952160;28;51111;-66
2021/12/10 11:12:03;;;;;;;;;2.00;2.00;;;;;-147.17;100.00;50515.28;4952600;28;53256;-66
2021/12/10 11:14:43;;;;;;;;;2.00;2.00;;;;;-147.17;100.00;50517.25;4954125;28;51030;-66
2021/12/10 11:17:40;;;;;;;;;3.00;3.00;;;;;-147.17;100.00;50533.00;4952976;28;51179;-66
2021/12/10 11:20:13;;;;;;;;;3.00;1.67;;;;;-147.17;100.00;50550.72;4952661;28;50907;-65